createdAt,value
2022-07-25T00:00:49.370Z,100.00
2022-07-25T00:01:53.296Z,100.00
2022-07-25T00:02:55.996Z,100.00
2022-07-25T00:03:58.652Z,100.00
2022-07-25T00:05:01.198Z,100.00
2022-07-25T00:06:03.639Z,100.00
2022-07-25T00:07:05.931Z,100.00
2022-07-25T00:08:08.244Z,100.00
2022-07-25T00:09:10.561Z,100.00
2022-07-25T00:10:12.885Z,100.00
2022-07-25T00:11:15.195Z,100.00
2022-07-25T00:12:17.618Z,100.00
2022-07-25T00:13:19.971Z,100.00
2022-07-25T00:14:22.211Z,100.00
2022-07-25T00:15:24.556Z,100.00
2022-07-25T00:16:27.229Z,100.00
2022-07-25T00:17:29.537Z,100.00
2022-07-25T00:18:31.811Z,100.00
2022-07-25T00:19:34.073Z,100.00
2022-07-25T00:20:36.354Z,100.00
2022-07-25T00:21:38.655Z,100.00
2022-07-25T00:22:40.889Z,100.00
2022-07-25T00:23:43.289Z,100.00
2022-07-25T00:24:45.505Z,100.00
2022-07-25T00:25:47.770Z,100.00
2022-07-25T00:26:50.158Z,100.00
2022-07-25T00:27:52.819Z,100.00
2022-07-25T00:28:55.099Z,100.00
2022-07-25T00:29:57.355Z,100.00
2022-07-25T00:30:59.814Z,100.00
2022-07-25T00:32:02.085Z,100.00
2022-07-25T00:33:04.376Z,100.00
2022-07-25T00:34:06.942Z,100.00
2022-07-25T00:35:09.662Z,100.00
2022-07-25T00:36:12.034Z,100.00
2022-07-25T00:37:14.295Z,100.00
2022-07-25T00:38:16.581Z,100.00
2022-07-25T00:39:18.841Z,100.00
2022-07-25T00:40:21.202Z,100.00
2022-07-25T00:41:23.539Z,100.00
2022-07-25T00:42:25.822Z,100.00
2022-07-25T00:43:28.057Z,100.00
2022-07-25T00:44:32.433Z,100.00
2022-07-25T00:45:34.754Z,100.00
2022-07-25T00:46:39.254Z,100.00
2022-07-25T00:47:41.543Z,100.00
2022-07-25T00:48:44.600Z,100.00
2022-07-25T00:49:46.955Z,100.00
2022-07-25T00:50:49.187Z,100.00
2022-07-25T00:51:52.959Z,100.00
2022-07-25T00:52:55.651Z,100.00
2022-07-25T00:53:57.926Z,100.00
2022-07-25T00:55:01.006Z,100.00
2022-07-25T00:56:04.474Z,100.00
2022-07-25T00:57:06.768Z,100.00
2022-07-25T00:58:08.994Z,100.00
2022-07-25T00:59:11.517Z,100.00
2022-07-25T01:00:15.227Z,100.00
2022-07-25T01:01:17.545Z,100.00
2022-07-25T01:02:19.922Z,100.00
2022-07-25T01:03:22.255Z,100.00
2022-07-25T01:04:24.709Z,100.00
2022-07-25T01:05:27.134Z,100.00
2022-07-25T01:06:29.660Z,100.00
2022-07-25T01:07:32.714Z,100.00
2022-07-25T01:08:35.582Z,100.00
2022-07-25T01:09:38.035Z,100.00
2022-07-25T01:10:40.600Z,100.00
2022-07-25T01:11:42.914Z,100.00
2022-07-25T01:12:49.135Z,100.00
2022-07-25T01:13:51.687Z,100.00
2022-07-25T01:14:53.894Z,100.00
2022-07-25T01:15:56.237Z,100.00
2022-07-25T01:16:58.542Z,100.00
2022-07-25T01:18:00.925Z,100.00
2022-07-25T01:19:03.762Z,100.00
2022-07-25T01:20:12.532Z,100.00
2022-07-25T01:21:14.787Z,100.00
2022-07-25T01:22:17.372Z,100.00
2022-07-25T01:23:19.769Z,100.00
2022-07-25T01:24:22.056Z,100.00
2022-07-25T01:25:25.052Z,100.00
2022-07-25T01:26:27.323Z,100.00
2022-07-25T01:27:29.634Z,100.00
2022-07-25T01:28:31.871Z,100.00
2022-07-25T01:29:34.292Z,100.00
2022-07-25T01:30:38.469Z,100.00
2022-07-25T01:31:40.972Z,100.00
2022-07-25T01:37:26.543Z,100.00
2022-07-25T01:38:28.830Z,100.00
2022-07-25T01:39:31.099Z,100.00
2022-07-25T01:40:33.357Z,100.00
2022-07-25T01:41:35.574Z,100.00
2022-07-25T01:42:38.011Z,100.00
2022-07-25T01:43:40.521Z,100.00
2022-07-25T01:44:42.800Z,100.00
2022-07-25T01:45:45.162Z,100.00
2022-07-25T01:46:47.457Z,100.00
2022-07-25T01:47:49.776Z,100.00
2022-07-25T01:48:52.200Z,100.00
2022-07-25T01:49:54.498Z,100.00
2022-07-25T01:50:56.862Z,100.00
2022-07-25T01:52:00.274Z,100.00
2022-07-25T01:53:02.602Z,100.00
2022-07-25T01:54:05.865Z,100.00
2022-07-25T01:55:12.914Z,100.00
2022-07-25T01:56:15.343Z,100.00
2022-07-25T01:57:17.595Z,100.00
2022-07-25T01:58:20.370Z,100.00
2022-07-25T01:59:23.757Z,100.00
2022-07-25T02:00:26.064Z,100.00
2022-07-25T02:01:28.398Z,100.00
2022-07-25T02:02:30.738Z,100.00
2022-07-25T02:03:33.133Z,100.00
2022-07-25T02:04:36.577Z,100.00
2022-07-25T02:05:38.997Z,100.00
2022-07-25T02:06:41.490Z,100.00
2022-07-25T02:07:43.889Z,100.00
2022-07-25T02:08:46.491Z,100.00
2022-07-25T02:09:54.756Z,100.00
2022-07-25T02:10:59.244Z,100.00
2022-07-25T02:12:01.838Z,100.00
2022-07-25T02:13:04.193Z,100.00
2022-07-25T02:14:07.143Z,100.00
2022-07-25T02:15:10.044Z,100.00
2022-07-25T02:16:12.382Z,100.00
2022-07-25T02:17:14.969Z,100.00
2022-07-25T02:18:17.444Z,100.00
2022-07-25T02:19:19.667Z,100.00
2022-07-25T02:20:21.983Z,100.00
2022-07-25T02:21:26.017Z,100.00
2022-07-25T02:22:28.293Z,100.00
2022-07-25T02:23:30.486Z,100.00
2022-07-25T02:24:32.766Z,100.00
2022-07-25T02:25:35.581Z,100.00
2022-07-25T02:26:37.898Z,100.00
2022-07-25T02:27:40.269Z,100.00
2022-07-25T02:28:42.646Z,100.00
2022-07-25T02:29:44.944Z,100.00
2022-07-25T02:30:47.346Z,100.00
2022-07-25T02:31:51.810Z,100.00
2022-07-25T02:32:54.074Z,100.00
2022-07-25T02:33:56.446Z,100.00
2022-07-25T02:34:58.638Z,100.00
2022-07-25T02:36:00.887Z,100.00
2022-07-25T02:37:03.177Z,100.00
2022-07-25T02:38:05.461Z,100.00
2022-07-25T02:39:07.784Z,100.00
2022-07-25T02:40:10.580Z,100.00
2022-07-25T02:41:12.828Z,100.00
2022-07-25T02:42:15.255Z,100.00
2022-07-25T02:43:18.395Z,100.00
2022-07-25T02:44:20.640Z,100.00
2022-07-25T02:45:22.849Z,100.00
2022-07-25T02:46:25.304Z,100.00
2022-07-25T02:47:27.643Z,100.00
2022-07-25T02:48:30.152Z,100.00
2022-07-25T02:49:32.488Z,100.00
2022-07-25T02:50:35.647Z,100.00
2022-07-25T02:51:37.904Z,100.00
2022-07-25T02:52:40.213Z,100.00
2022-07-25T02:53:58.857Z,100.00
2022-07-25T02:55:04.904Z,100.00
2022-07-25T02:56:11.286Z,100.00
2022-07-25T02:57:16.788Z,100.00
2022-07-25T02:58:19.104Z,100.00
2022-07-25T02:59:21.365Z,100.00
2022-07-25T03:00:23.937Z,100.00
2022-07-25T03:01:26.872Z,100.00
2022-07-25T03:02:29.107Z,100.00
2022-07-25T03:03:31.396Z,100.00
2022-07-25T03:04:34.033Z,100.00
2022-07-25T03:05:36.456Z,100.00
2022-07-25T03:06:38.725Z,100.00
2022-07-25T03:07:42.143Z,100.00
2022-07-25T03:08:44.381Z,100.00
2022-07-25T03:09:46.591Z,100.00
2022-07-25T03:10:48.958Z,100.00
2022-07-25T03:11:52.034Z,100.00
2022-07-25T03:12:54.223Z,100.00
2022-07-25T03:13:56.575Z,100.00
2022-07-25T03:14:59.821Z,100.00
2022-07-25T03:16:02.134Z,100.00
2022-07-25T03:17:04.474Z,100.00
2022-07-25T03:18:06.881Z,100.00
2022-07-25T03:19:10.644Z,100.00
2022-07-25T03:20:13.076Z,100.00
2022-07-25T03:21:15.333Z,100.00
2022-07-25T03:22:17.703Z,100.00
2022-07-25T03:23:19.995Z,100.00
2022-07-25T03:24:22.271Z,100.00
2022-07-25T03:25:24.608Z,100.00
2022-07-25T03:26:26.876Z,100.00
2022-07-25T03:27:29.353Z,100.00
2022-07-25T03:28:31.679Z,100.00
2022-07-25T03:29:34.321Z,100.00
2022-07-25T03:30:36.584Z,100.00
2022-07-25T03:31:38.958Z,100.00
2022-07-25T03:32:41.366Z,100.00
2022-07-25T03:33:43.675Z,100.00
2022-07-25T03:34:46.179Z,100.00
2022-07-25T03:35:48.690Z,100.00
2022-07-25T03:36:50.922Z,100.00
2022-07-25T03:37:53.614Z,100.00
2022-07-25T03:38:56.674Z,100.00
2022-07-25T03:39:58.932Z,100.00
2022-07-25T03:41:01.319Z,100.00
2022-07-25T03:42:03.749Z,100.00
2022-07-25T03:43:06.098Z,100.00
2022-07-25T03:44:08.879Z,100.00
2022-07-25T03:45:11.769Z,100.00
2022-07-25T03:46:14.488Z,100.00
2022-07-25T03:47:20.521Z,100.00
2022-07-25T03:48:23.255Z,100.00
2022-07-25T03:49:25.483Z,100.00
2022-07-25T03:50:27.835Z,100.00
2022-07-25T03:51:30.160Z,100.00
2022-07-25T03:52:32.543Z,100.00
2022-07-25T03:53:55.794Z,100.00
2022-07-25T03:54:58.150Z,100.00
2022-07-25T03:56:00.453Z,100.00
2022-07-25T03:57:02.779Z,100.00
2022-07-25T03:58:05.265Z,100.00
2022-07-25T03:59:08.348Z,100.00
2022-07-25T04:00:12.482Z,100.00
2022-07-25T04:01:14.898Z,100.00
2022-07-25T04:02:17.314Z,100.00
2022-07-25T04:03:19.870Z,100.00
2022-07-25T04:04:22.200Z,100.00
2022-07-25T04:05:24.643Z,100.00
2022-07-25T04:06:27.106Z,100.00
2022-07-25T04:07:30.528Z,100.00
2022-07-25T04:08:32.811Z,100.00
2022-07-25T04:09:35.192Z,100.00
2022-07-25T04:10:37.632Z,100.00
2022-07-25T04:11:39.900Z,100.00
2022-07-25T04:12:42.137Z,100.00
2022-07-25T04:13:44.494Z,100.00
2022-07-25T04:14:46.856Z,100.00
2022-07-25T04:15:49.116Z,100.00
2022-07-25T04:16:51.574Z,100.00
2022-07-25T04:17:53.816Z,100.00
2022-07-25T04:18:57.871Z,100.00
2022-07-25T04:20:00.178Z,100.00
2022-07-25T04:21:03.437Z,100.00
2022-07-25T04:22:05.752Z,100.00
2022-07-25T04:23:08.059Z,100.00
2022-07-25T04:24:10.428Z,100.00
2022-07-25T04:25:12.696Z,100.00
2022-07-25T04:26:15.201Z,100.00
2022-07-25T04:27:17.465Z,100.00
2022-07-25T04:28:19.765Z,100.00
2022-07-25T04:29:22.030Z,100.00
2022-07-25T04:30:24.986Z,100.00
2022-07-25T04:31:27.600Z,100.00
2022-07-25T04:32:30.623Z,100.00
2022-07-25T04:33:32.902Z,100.00
2022-07-25T04:34:35.190Z,95.41
2022-07-25T04:35:37.732Z,90.38
2022-07-25T04:36:40.067Z,85.73
2022-07-25T04:37:42.393Z,82.66
2022-07-25T04:38:45.417Z,80.21
2022-07-25T04:39:47.674Z,77.02
2022-07-25T04:40:50.486Z,74.24
2022-07-25T04:41:52.802Z,73.98
2022-07-25T04:42:55.021Z,80.87
2022-07-25T04:43:57.410Z,81.17
2022-07-25T04:44:59.660Z,79.78
2022-07-25T04:46:02.099Z,79.18
2022-07-25T04:47:05.027Z,78.70
2022-07-25T04:48:07.511Z,77.68
2022-07-25T04:49:09.845Z,76.43
2022-07-25T04:50:12.902Z,76.07
2022-07-25T04:51:16.270Z,75.69
2022-07-25T04:52:18.668Z,74.31
2022-07-25T04:53:20.994Z,72.74
2022-07-25T04:54:23.227Z,71.03
2022-07-25T04:55:25.734Z,70.49
2022-07-25T04:56:28.074Z,66.14
2022-07-25T04:57:30.581Z,66.33
2022-07-25T04:58:33.105Z,64.18
2022-07-25T04:59:35.319Z,64.63
2022-07-25T05:00:38.134Z,62.57
2022-07-25T05:01:40.483Z,63.64
2022-07-25T05:02:43.496Z,64.74
2022-07-25T05:03:50.067Z,65.74
2022-07-25T05:04:53.379Z,65.41
2022-07-25T05:05:55.751Z,66.71
2022-07-25T05:06:57.989Z,68.20
2022-07-25T05:08:00.821Z,67.28
2022-07-25T05:09:03.347Z,65.92
2022-07-25T05:10:06.113Z,66.50
2022-07-25T05:11:08.429Z,65.00
2022-07-25T05:12:10.738Z,67.21
2022-07-25T05:13:12.959Z,68.08
2022-07-25T05:14:15.568Z,65.29
2022-07-25T05:15:18.023Z,62.90
2022-07-25T05:16:20.293Z,63.72
2022-07-25T05:17:22.656Z,63.82
2022-07-25T05:18:24.998Z,62.00
2022-07-25T05:19:27.240Z,66.18
2022-07-25T05:20:29.591Z,67.07
2022-07-25T05:21:32.551Z,64.90
2022-07-25T05:22:34.791Z,62.01
2022-07-25T05:23:37.089Z,62.10
2022-07-25T05:24:39.346Z,61.92
2022-07-25T05:25:41.892Z,61.64
2022-07-25T05:26:44.157Z,60.51
2022-07-25T05:27:46.470Z,59.64
2022-07-25T05:28:48.892Z,59.16
2022-07-25T05:29:51.198Z,59.01
2022-07-25T05:30:53.441Z,58.93
2022-07-25T05:31:55.812Z,60.53
2022-07-25T05:32:58.187Z,58.37
2022-07-25T05:34:00.482Z,57.46
2022-07-25T05:35:03.497Z,57.09
2022-07-25T05:36:06.192Z,56.03
2022-07-25T05:37:08.489Z,56.47
2022-07-25T05:38:10.827Z,55.01
2022-07-25T05:39:13.275Z,52.24
2022-07-25T05:40:15.613Z,51.82
2022-07-25T05:41:17.874Z,51.36
2022-07-25T05:42:20.180Z,51.20
2022-07-25T05:43:22.723Z,50.92
2022-07-25T05:44:24.981Z,50.25
2022-07-25T05:45:27.238Z,50.75
2022-07-25T05:46:32.085Z,47.50
2022-07-25T05:47:34.569Z,45.83
2022-07-25T05:48:37.424Z,47.84
2022-07-25T05:49:39.877Z,47.56
2022-07-25T05:50:42.265Z,48.40
2022-07-25T05:51:44.518Z,46.26
2022-07-25T05:52:46.857Z,44.18
2022-07-25T05:53:49.138Z,44.97
2022-07-25T05:54:51.485Z,46.02
2022-07-25T05:55:54.262Z,45.93
2022-07-25T05:56:56.616Z,45.80
2022-07-25T05:57:59.412Z,45.06
2022-07-25T05:59:01.733Z,45.49
2022-07-25T06:00:06.115Z,44.92
2022-07-25T06:01:12.341Z,44.87
2022-07-25T06:02:14.689Z,46.26
2022-07-25T06:03:18.789Z,49.20
2022-07-25T06:04:26.813Z,50.38
2022-07-25T06:05:29.572Z,47.65
2022-07-25T06:06:32.729Z,47.51
2022-07-25T06:07:35.085Z,45.64
2022-07-25T06:08:38.459Z,44.38
2022-07-25T06:09:40.673Z,44.93
2022-07-25T06:10:43.243Z,43.60
2022-07-25T06:11:54.534Z,40.88
2022-07-25T06:13:02.316Z,40.88
2022-07-25T06:14:04.900Z,40.82
2022-07-25T06:15:12.644Z,38.46
2022-07-25T06:16:25.223Z,37.93
2022-07-25T06:17:32.105Z,38.30
2022-07-25T06:18:34.970Z,38.59
2022-07-25T06:19:37.278Z,40.45
2022-07-25T06:20:39.581Z,39.00
2022-07-25T06:21:41.817Z,39.53
2022-07-25T06:22:44.085Z,40.26
2022-07-25T06:23:46.381Z,40.99
2022-07-25T06:24:48.698Z,40.97
2022-07-25T06:25:50.995Z,41.80
2022-07-25T06:26:53.273Z,39.15
2022-07-25T06:27:55.528Z,42.40
2022-07-25T06:28:57.877Z,41.36
2022-07-25T06:30:00.124Z,39.50
2022-07-25T06:31:02.605Z,41.52
2022-07-25T06:32:05.227Z,43.40
2022-07-25T06:33:07.468Z,43.63
2022-07-25T06:34:10.287Z,43.99
2022-07-25T06:35:12.886Z,42.37
2022-07-25T06:36:15.452Z,41.69
2022-07-25T06:37:17.695Z,40.96
2022-07-25T06:38:20.051Z,40.40
2022-07-25T06:39:22.326Z,42.03
2022-07-25T06:40:24.805Z,43.68
2022-07-25T06:41:27.196Z,46.45
2022-07-25T06:42:31.331Z,45.45
2022-07-25T06:43:33.553Z,42.56
2022-07-25T06:44:35.844Z,43.18
2022-07-25T06:45:38.462Z,42.01
2022-07-25T06:46:41.202Z,43.26
2022-07-25T06:47:44.371Z,42.35
2022-07-25T06:48:46.857Z,41.76
2022-07-25T06:49:49.205Z,42.60
2022-07-25T06:50:51.667Z,43.77
2022-07-25T06:51:53.944Z,45.42
2022-07-25T06:52:56.206Z,42.28
2022-07-25T06:53:58.790Z,41.53
2022-07-25T06:55:01.323Z,40.26
2022-07-25T06:56:03.922Z,39.38
2022-07-25T06:57:06.174Z,39.82
2022-07-25T06:58:08.934Z,39.14
2022-07-25T06:59:11.668Z,38.95
2022-07-25T07:00:14.558Z,39.43
2022-07-25T07:01:16.836Z,39.84
2022-07-25T07:02:19.388Z,41.75
2022-07-25T07:03:21.895Z,42.33
2022-07-25T07:04:24.254Z,44.12
2022-07-25T07:05:29.752Z,42.26
2022-07-25T07:06:32.150Z,43.24
2022-07-25T07:07:34.606Z,42.91
2022-07-25T07:08:38.657Z,40.22
2022-07-25T07:09:40.963Z,40.68
2022-07-25T07:10:43.718Z,42.54
2022-07-25T07:11:46.036Z,43.18
2022-07-25T07:12:49.474Z,44.31
2022-07-25T07:13:52.241Z,42.04
2022-07-25T07:14:54.561Z,39.20
2022-07-25T07:15:56.898Z,37.80
2022-07-25T07:16:59.249Z,39.00
2022-07-25T07:18:01.496Z,39.25
2022-07-25T07:19:04.195Z,41.79
2022-07-25T07:20:08.340Z,47.59
2022-07-25T07:21:11.684Z,49.11
2022-07-25T07:22:23.461Z,50.08
2022-07-25T07:23:25.835Z,49.98
2022-07-25T07:24:31.188Z,51.21
2022-07-25T07:25:34.350Z,57.06
2022-07-25T07:26:36.813Z,64.27
2022-07-25T07:27:39.107Z,65.56
2022-07-25T07:28:41.662Z,62.37
2022-07-25T07:29:44.086Z,63.68
2022-07-25T07:32:08.850Z,74.25
2022-07-25T07:33:11.131Z,75.49
2022-07-25T07:34:16.217Z,76.15
2022-07-25T07:35:19.247Z,83.20
2022-07-25T07:36:22.112Z,85.62
2022-07-25T07:37:24.508Z,85.67
2022-07-25T07:38:27.235Z,85.13
2022-07-25T07:39:29.521Z,84.66
2022-07-25T07:40:32.056Z,85.51
2022-07-25T07:41:34.352Z,84.84
2022-07-25T07:42:47.934Z,87.78
2022-07-25T07:43:50.210Z,86.60
2022-07-25T07:44:52.529Z,86.85
2022-07-25T07:45:56.004Z,87.80
2022-07-25T07:47:02.538Z,86.76
2022-07-25T07:48:06.234Z,90.09
2022-07-25T07:49:08.898Z,89.25
2022-07-25T07:50:11.510Z,90.14
2022-07-25T07:51:13.834Z,89.32
2022-07-25T07:52:16.133Z,91.44
2022-07-25T07:53:18.554Z,91.71
2022-07-25T07:54:39.201Z,90.33
2022-07-25T07:55:44.411Z,87.57
2022-07-25T07:56:46.731Z,86.31
2022-07-25T07:57:49.100Z,82.66
2022-07-25T07:58:51.355Z,82.46
2022-07-25T07:59:53.850Z,80.33
2022-07-25T08:00:56.193Z,79.74
2022-07-25T08:01:58.614Z,81.03
2022-07-25T08:03:01.296Z,84.46
2022-07-25T08:04:03.858Z,85.68
2022-07-25T08:05:06.729Z,83.79
2022-07-25T08:06:09.101Z,82.19
2022-07-25T08:07:11.420Z,82.47
2022-07-25T08:08:15.232Z,83.17
2022-07-25T08:09:17.580Z,81.47
2022-07-25T08:10:22.330Z,80.14
2022-07-25T08:11:26.278Z,74.65
2022-07-25T08:12:28.565Z,75.68
2022-07-25T08:13:33.978Z,79.74
2022-07-25T08:14:36.296Z,78.23
2022-07-25T08:15:38.557Z,74.23
2022-07-25T08:16:40.942Z,79.62
2022-07-25T08:17:44.880Z,75.56
2022-07-25T08:18:47.264Z,77.02
2022-07-25T08:19:49.507Z,76.11
2022-07-25T08:20:52.394Z,77.96
2022-07-25T08:21:54.637Z,77.34
2022-07-25T08:22:57.115Z,75.76
2022-07-25T08:24:00.043Z,74.75
2022-07-25T08:25:02.337Z,75.71
2022-07-25T08:26:05.623Z,74.26
2022-07-25T08:27:07.918Z,73.39
2022-07-25T08:28:10.750Z,69.47
2022-07-25T08:29:22.961Z,68.64
2022-07-25T08:30:30.021Z,67.48
2022-07-25T08:31:32.320Z,68.21
2022-07-25T08:32:34.726Z,70.10
2022-07-25T08:33:37.295Z,72.86
2022-07-25T08:34:39.617Z,70.84
2022-07-25T08:35:51.706Z,69.02
2022-07-25T08:36:54.006Z,72.77
2022-07-25T08:37:56.917Z,70.61
2022-07-25T08:38:59.635Z,69.71
2022-07-25T08:40:01.858Z,72.19
2022-07-25T08:41:05.032Z,70.57
2022-07-25T08:42:11.115Z,68.55
2022-07-25T08:43:15.590Z,69.63
2022-07-25T08:44:18.846Z,65.69
2022-07-25T08:45:22.062Z,64.19
2022-07-25T08:46:24.600Z,60.59
2022-07-25T08:47:28.817Z,62.12
2022-07-25T08:48:31.417Z,65.06
2022-07-25T08:49:35.176Z,69.45
2022-07-25T08:50:39.094Z,68.93
2022-07-25T08:51:41.632Z,63.49
2022-07-25T08:52:45.708Z,61.54
2022-07-25T08:53:48.785Z,61.82
2022-07-25T08:54:51.376Z,62.42
2022-07-25T08:55:53.667Z,64.06
2022-07-25T08:56:56.008Z,61.94
2022-07-25T08:57:58.264Z,60.74
2022-07-25T08:59:00.517Z,60.66
2022-07-25T09:00:06.233Z,59.45
2022-07-25T09:01:08.739Z,60.93
2022-07-25T09:02:15.344Z,61.15
2022-07-25T09:03:17.932Z,57.00
2022-07-25T09:04:20.728Z,60.74
2022-07-25T09:05:24.580Z,59.20
2022-07-25T09:06:26.798Z,58.66
2022-07-25T09:07:31.577Z,59.94
2022-07-25T09:08:33.914Z,60.63
2022-07-25T09:09:39.420Z,59.88
2022-07-25T09:10:48.055Z,60.65
2022-07-25T09:11:50.389Z,59.22
2022-07-25T09:13:00.689Z,59.75
2022-07-25T09:14:09.712Z,58.71
2022-07-25T09:15:27.023Z,60.52
2022-07-25T09:16:40.893Z,58.21
2022-07-25T09:17:50.349Z,56.72
2022-07-25T09:18:52.623Z,56.42
2022-07-25T09:19:56.670Z,55.29
2022-07-25T09:21:00.761Z,55.78
2022-07-25T09:22:06.325Z,54.78
2022-07-25T09:23:15.607Z,52.06
2022-07-25T09:24:18.983Z,51.82
2022-07-25T09:25:21.956Z,53.61
2022-07-25T09:26:24.616Z,54.46
2022-07-25T09:27:34.422Z,51.75
2022-07-25T09:28:43.488Z,53.65
2022-07-25T09:29:45.898Z,52.96
2022-07-25T09:30:59.563Z,55.31
2022-07-25T09:32:13.374Z,52.02
2022-07-25T09:33:15.579Z,49.90
2022-07-25T09:34:45.776Z,51.02
2022-07-25T09:35:48.265Z,51.42
2022-07-25T09:36:52.947Z,51.38
2022-07-25T09:37:55.250Z,51.68
2022-07-25T09:39:02.439Z,52.46
2022-07-25T09:40:14.050Z,51.95
2022-07-25T09:41:16.447Z,52.06
2022-07-25T09:42:27.455Z,52.24
2022-07-25T09:43:40.640Z,51.37
2022-07-25T09:44:43.109Z,54.09
2022-07-25T09:45:52.173Z,52.58
2022-07-25T09:46:54.582Z,54.66
2022-07-25T09:48:00.121Z,53.36
2022-07-25T09:49:02.500Z,55.56
2022-07-25T09:50:06.628Z,54.18
2022-07-25T09:51:08.962Z,52.40
2022-07-25T09:52:12.454Z,51.31
2022-07-25T09:53:15.127Z,50.82
2022-07-25T09:54:18.064Z,49.21
2022-07-25T09:55:21.709Z,49.47
2022-07-25T09:56:24.031Z,49.27
2022-07-25T09:57:27.585Z,49.17
2022-07-25T09:58:30.068Z,49.78
2022-07-25T09:59:38.065Z,48.04
2022-07-25T10:00:42.551Z,49.31
2022-07-25T10:01:56.450Z,48.40
2022-07-25T10:03:20.840Z,45.01
2022-07-25T10:04:52.637Z,45.60
2022-07-25T10:05:57.727Z,48.96
2022-07-25T10:07:12.123Z,47.88
2022-07-25T10:08:15.147Z,46.83
2022-07-25T10:09:17.945Z,45.07
2022-07-25T10:10:32.278Z,44.45
2022-07-25T10:11:34.695Z,44.80
2022-07-25T10:12:38.200Z,43.06
2022-07-25T10:13:40.767Z,43.73
2022-07-25T10:14:43.186Z,43.37
2022-07-25T10:15:52.989Z,43.52
2022-07-25T10:16:55.431Z,43.07
2022-07-25T10:18:06.755Z,42.62
2022-07-25T10:19:09.073Z,42.27
2022-07-25T10:20:11.838Z,42.41
2022-07-25T10:21:25.444Z,43.42
2022-07-25T10:22:55.966Z,42.98
2022-07-25T10:24:06.401Z,41.36
2022-07-25T10:25:17.350Z,41.02
2022-07-25T10:26:20.280Z,40.47
2022-07-25T10:27:23.932Z,41.37
2022-07-25T10:28:40.130Z,39.60
2022-07-25T10:29:42.722Z,39.62
2022-07-25T10:30:45.161Z,40.56
2022-07-25T10:31:51.263Z,38.97
2022-07-25T10:32:58.478Z,38.05
2022-07-25T10:34:04.685Z,39.77
2022-07-25T10:35:16.021Z,39.65
2022-07-25T10:36:20.054Z,37.84
2022-07-25T10:37:32.527Z,35.58
2022-07-25T10:38:34.841Z,37.03
2022-07-25T10:39:39.099Z,36.26
2022-07-25T10:40:46.592Z,36.12
2022-07-25T10:42:00.339Z,37.78
2022-07-25T10:43:13.892Z,38.37
2022-07-25T10:44:16.476Z,38.20
2022-07-25T10:45:18.801Z,38.27
2022-07-25T10:46:23.438Z,38.31
2022-07-25T10:47:27.477Z,39.67
2022-07-25T10:48:33.228Z,41.46
2022-07-25T10:49:37.488Z,40.98
2022-07-25T10:50:56.804Z,41.02
2022-07-25T10:52:01.489Z,39.07
2022-07-25T10:53:09.091Z,39.15
2022-07-25T10:54:18.125Z,39.23
2022-07-25T10:55:23.939Z,39.27
2022-07-25T10:56:29.231Z,40.35
2022-07-25T10:57:32.338Z,41.46
2022-07-25T10:58:51.224Z,41.34
2022-07-25T10:59:53.588Z,39.90
2022-07-25T11:00:56.036Z,40.26
2022-07-25T11:01:59.153Z,41.35
2022-07-25T11:03:01.641Z,40.97
2022-07-25T11:04:14.340Z,40.07
2022-07-25T11:05:16.705Z,40.29
2022-07-25T11:06:31.761Z,40.95
2022-07-25T11:07:36.923Z,40.10
2022-07-25T11:08:39.236Z,38.65
2022-07-25T11:09:44.574Z,40.52
2022-07-25T11:10:51.416Z,38.30
2022-07-25T11:11:57.260Z,37.67
2022-07-25T11:12:59.530Z,38.24
2022-07-25T11:14:02.227Z,39.03
2022-07-25T11:15:07.448Z,40.88
2022-07-25T11:16:10.214Z,40.86
2022-07-25T11:17:20.861Z,39.95
2022-07-25T11:18:34.334Z,40.05
2022-07-25T11:19:36.572Z,38.81
2022-07-25T11:20:38.865Z,39.36
2022-07-25T11:21:45.795Z,39.71
2022-07-25T11:22:53.613Z,39.11
2022-07-25T11:23:55.920Z,38.67
2022-07-25T11:24:59.532Z,40.64
2022-07-25T11:26:10.597Z,39.81
2022-07-25T11:27:21.856Z,40.22
2022-07-25T11:28:24.149Z,40.24
2022-07-25T11:29:29.568Z,39.36
2022-07-25T11:30:32.411Z,38.76
2022-07-25T11:31:35.645Z,41.16
2022-07-25T11:32:40.434Z,40.69
2022-07-25T11:33:47.652Z,39.76
2022-07-25T11:34:53.467Z,40.06
2022-07-25T11:36:01.118Z,40.13
2022-07-25T11:37:07.874Z,40.77
2022-07-25T11:38:13.937Z,39.73
2022-07-25T11:39:18.965Z,39.04
2022-07-25T11:40:22.867Z,39.01
2022-07-25T11:41:30.138Z,39.59
2022-07-25T11:42:47.976Z,41.17
2022-07-25T11:43:50.255Z,41.03
2022-07-25T11:44:53.125Z,42.36
2022-07-25T11:45:58.097Z,41.32
2022-07-25T11:47:00.605Z,41.69
2022-07-25T11:48:11.449Z,40.88
2022-07-25T11:49:14.956Z,41.59
2022-07-25T11:50:17.365Z,41.59
2022-07-25T11:51:19.713Z,40.92
2022-07-25T11:52:30.559Z,38.92
2022-07-25T11:53:39.841Z,38.23
2022-07-25T11:54:51.422Z,37.86
2022-07-25T11:55:53.792Z,38.19
2022-07-25T11:56:56.030Z,39.18
2022-07-25T11:58:00.954Z,39.98
2022-07-25T11:59:03.354Z,39.54
2022-07-25T12:00:19.306Z,39.93
2022-07-25T12:01:21.776Z,39.62
2022-07-25T12:02:31.114Z,38.73
2022-07-25T12:03:38.055Z,38.44
2022-07-25T12:04:40.573Z,38.51
2022-07-25T12:05:43.229Z,41.06
2022-07-25T12:06:49.109Z,44.03
2022-07-25T12:07:54.423Z,42.92
2022-07-25T12:08:56.749Z,42.65
2022-07-25T12:09:59.048Z,40.86
2022-07-25T12:11:01.353Z,41.00
2022-07-25T12:12:04.326Z,41.05
2022-07-25T12:13:08.712Z,41.53
2022-07-25T12:14:11.759Z,42.94
2022-07-25T12:15:15.471Z,42.98
2022-07-25T12:16:17.947Z,43.56
2022-07-25T12:17:20.299Z,42.03
2022-07-25T12:18:22.588Z,40.88
2022-07-25T12:19:24.863Z,40.63
2022-07-25T12:20:28.209Z,42.13
2022-07-25T12:21:30.604Z,41.09
2022-07-25T12:22:32.968Z,40.19
2022-07-25T12:23:35.375Z,39.93
2022-07-25T12:24:37.686Z,38.57
2022-07-25T12:25:42.889Z,39.20
2022-07-25T12:26:45.276Z,39.88
2022-07-25T12:27:48.048Z,38.51
2022-07-25T12:28:50.375Z,38.06
2022-07-25T12:29:52.652Z,37.38
2022-07-25T12:30:56.882Z,38.92
2022-07-25T12:31:59.569Z,39.18
2022-07-25T12:33:01.904Z,40.28
2022-07-25T12:34:04.216Z,40.57
2022-07-25T12:35:08.284Z,42.03
2022-07-25T12:36:13.791Z,42.64
2022-07-25T12:37:15.995Z,42.06
2022-07-25T12:38:18.528Z,41.80
2022-07-25T12:39:20.784Z,42.45
2022-07-25T12:40:23.175Z,41.85
2022-07-25T12:41:25.787Z,41.95
2022-07-25T12:42:30.669Z,44.04
2022-07-25T12:43:32.915Z,43.74
2022-07-25T12:44:35.168Z,42.33
2022-07-25T12:45:37.773Z,42.91
2022-07-25T12:46:44.603Z,42.02
2022-07-25T12:47:51.225Z,41.55
2022-07-25T12:48:53.571Z,40.06
2022-07-25T12:49:56.259Z,39.52
2022-07-25T12:50:58.551Z,40.93
2022-07-25T12:52:00.892Z,41.61
2022-07-25T12:53:04.420Z,42.27
2022-07-25T12:54:07.002Z,41.94
2022-07-25T12:55:12.367Z,42.66
2022-07-25T12:56:15.714Z,40.12
2022-07-25T12:57:17.926Z,39.76
2022-07-25T12:58:21.137Z,39.49
2022-07-25T12:59:23.668Z,39.20
2022-07-25T13:00:26.050Z,40.21
2022-07-25T13:01:28.417Z,41.33
2022-07-25T13:02:30.776Z,41.99
2022-07-25T13:03:33.101Z,41.18
2022-07-25T13:04:35.597Z,41.68
2022-07-25T13:05:39.948Z,42.10
2022-07-25T13:06:42.333Z,41.63
2022-07-25T13:07:44.703Z,40.10
2022-07-25T13:08:47.519Z,41.29
2022-07-25T13:09:49.865Z,41.84
2022-07-25T13:10:52.217Z,41.26
2022-07-25T13:11:55.247Z,41.04
2022-07-25T13:12:57.512Z,40.82
2022-07-25T13:14:00.059Z,40.66
2022-07-25T13:15:02.596Z,41.42
2022-07-25T13:16:05.402Z,40.65
2022-07-25T13:17:07.923Z,40.35
2022-07-25T13:18:10.330Z,40.73
2022-07-25T13:19:13.497Z,42.46
2022-07-25T13:20:15.764Z,42.12
2022-07-25T13:21:18.719Z,44.72
2022-07-25T13:22:21.052Z,43.98
2022-07-25T13:23:23.366Z,43.88
2022-07-25T13:24:25.674Z,44.70
2022-07-25T13:25:28.014Z,44.18
2022-07-25T13:26:31.337Z,45.78
2022-07-25T13:27:33.607Z,45.79
2022-07-25T13:28:36.126Z,44.52
2022-07-25T13:29:38.505Z,44.04
2022-07-25T13:30:40.775Z,44.24
2022-07-25T13:31:43.627Z,46.66
2022-07-25T13:32:46.542Z,46.57
2022-07-25T13:33:49.141Z,46.43
2022-07-25T13:34:51.428Z,45.35
2022-07-25T13:35:53.770Z,44.61
2022-07-25T13:36:56.086Z,44.89
2022-07-25T13:37:58.346Z,47.20
2022-07-25T13:39:00.739Z,45.38